createdAt,value
2023-09-15T00:00:55.143Z,20.00
2023-09-15T00:03:23.345Z,20.00
2023-09-15T00:05:51.243Z,19.70
2023-09-15T00:08:19.278Z,19.50
2023-09-15T00:10:49.024Z,19.50
2023-09-15T00:13:18.785Z,19.50
2023-09-15T00:15:51.127Z,19.40
2023-09-15T00:18:19.491Z,19.20
2023-09-15T00:20:47.559Z,19.00
2023-09-15T00:23:15.544Z,19.20
2023-09-15T00:25:46.558Z,19.40
2023-09-15T00:28:14.590Z,19.30
2023-09-15T00:30:43.943Z,19.30
2023-09-15T00:33:12.088Z,19.40
2023-09-15T00:35:39.974Z,19.40
2023-09-15T00:38:08.145Z,19.40
2023-09-15T00:40:36.030Z,19.40
2023-09-15T00:43:04.235Z,19.30
2023-09-15T00:45:32.343Z,19.10
2023-09-15T00:48:01.811Z,19.10
2023-09-15T00:50:33.443Z,19.20
2023-09-15T00:53:05.838Z,19.30
2023-09-15T00:55:35.115Z,19.40
2023-09-15T00:58:04.875Z,19.50
2023-09-15T01:00:33.501Z,19.50
2023-09-15T01:03:03.448Z,19.30
2023-09-15T01:05:31.697Z,19.20
2023-09-15T01:07:59.597Z,19.20
2023-09-15T01:10:28.727Z,19.30
2023-09-15T01:12:57.268Z,19.30
2023-09-15T01:15:32.017Z,19.00
2023-09-15T01:18:08.294Z,19.10
2023-09-15T01:21:05.188Z,18.80
2023-09-15T01:24:04.858Z,18.90
2023-09-15T01:27:01.046Z,18.80
2023-09-15T01:29:47.102Z,18.90
2023-09-15T01:32:19.860Z,18.70
2023-09-15T01:34:50.014Z,18.60
2023-09-15T01:37:18.865Z,18.50
2023-09-15T01:39:47.109Z,18.10
2023-09-15T01:42:15.505Z,18.00
2023-09-15T01:44:44.806Z,18.10
2023-09-15T01:47:21.740Z,18.30
2023-09-15T01:49:51.064Z,18.70
2023-09-15T01:52:19.907Z,19.00
2023-09-15T01:54:49.384Z,19.00
2023-09-15T01:57:17.318Z,18.90
2023-09-15T01:59:46.629Z,18.90
2023-09-15T02:02:14.613Z,18.90
2023-09-15T02:04:42.781Z,18.90
2023-09-15T02:07:10.961Z,18.80
2023-09-15T02:09:39.236Z,18.70
2023-09-15T02:12:07.610Z,18.70
2023-09-15T02:14:36.848Z,18.70
2023-09-15T02:17:06.866Z,18.80
2023-09-15T02:19:35.316Z,18.90
2023-09-15T02:22:03.303Z,18.80
2023-09-15T02:24:32.786Z,19.00
2023-09-15T02:27:01.293Z,19.00
2023-09-15T02:29:29.228Z,18.90
2023-09-15T02:31:57.185Z,18.80
2023-09-15T02:34:26.620Z,18.90
2023-09-15T02:36:54.598Z,19.00
2023-09-15T02:39:22.784Z,19.20
2023-09-15T02:41:51.773Z,18.70
2023-09-15T02:44:20.431Z,18.40
2023-09-15T02:46:49.303Z,18.40
2023-09-15T02:49:17.288Z,18.50
2023-09-15T02:51:46.974Z,18.50
2023-09-15T02:54:14.945Z,18.60
2023-09-15T02:56:43.449Z,18.70
2023-09-15T02:59:11.764Z,18.50
2023-09-15T03:01:39.780Z,18.30
2023-09-15T03:04:08.448Z,18.40
2023-09-15T03:06:36.424Z,18.40
2023-09-15T03:09:07.146Z,18.40
2023-09-15T03:11:35.624Z,18.60
2023-09-15T03:14:07.105Z,18.70
2023-09-15T03:16:35.225Z,18.60
2023-09-15T03:19:04.438Z,18.60
2023-09-15T03:21:32.386Z,18.60
2023-09-15T03:24:00.378Z,18.50
2023-09-15T03:26:29.697Z,18.50
2023-09-15T03:28:58.473Z,18.60
2023-09-15T03:31:26.852Z,18.70
2023-09-15T03:33:55.205Z,18.40
2023-09-15T03:36:23.568Z,18.30
2023-09-15T03:38:51.547Z,18.20
2023-09-15T03:41:19.497Z,18.30
2023-09-15T03:43:48.764Z,19.20
2023-09-15T03:46:16.834Z,20.00
2023-09-15T03:48:44.927Z,20.50
2023-09-15T03:51:13.132Z,21.00
2023-09-15T03:53:40.990Z,21.20
2023-09-15T03:56:08.996Z,21.40
2023-09-15T03:58:37.972Z,21.50
2023-09-15T04:01:10.424Z,21.60
2023-09-15T04:03:38.688Z,21.70
2023-09-15T04:06:07.680Z,21.80
2023-09-15T04:08:35.579Z,21.90
2023-09-15T04:11:03.683Z,22.00
2023-09-15T04:13:31.896Z,22.00
2023-09-15T04:16:01.444Z,22.10
2023-09-15T04:18:32.994Z,22.10
2023-09-15T04:21:01.387Z,22.00
2023-09-15T04:23:29.353Z,22.00
2023-09-15T04:25:57.277Z,22.10
2023-09-15T04:28:25.807Z,22.20
2023-09-15T04:30:54.413Z,22.30
2023-09-15T04:33:22.438Z,22.30
2023-09-15T04:35:51.738Z,22.30
2023-09-15T04:38:20.193Z,22.40
2023-09-15T04:40:49.194Z,22.40
2023-09-15T04:43:18.352Z,22.40
2023-09-15T04:45:46.920Z,22.40
2023-09-15T04:48:15.442Z,22.40
2023-09-15T04:50:43.958Z,22.50
2023-09-15T04:53:13.512Z,22.60
2023-09-15T04:55:43.450Z,22.60
2023-09-15T04:58:13.563Z,22.60
2023-09-15T05:00:43.062Z,22.50
2023-09-15T05:03:13.111Z,22.60
2023-09-15T05:05:41.418Z,22.50
2023-09-15T05:08:09.319Z,22.40
2023-09-15T05:10:38.625Z,22.20
2023-09-15T05:13:07.195Z,22.20
2023-09-15T05:15:36.512Z,22.40
2023-09-15T05:18:05.461Z,22.60
2023-09-15T05:20:34.811Z,22.80
2023-09-15T05:23:05.256Z,22.80
2023-09-15T05:25:33.991Z,22.90
2023-09-15T05:28:03.645Z,22.90
2023-09-15T05:30:33.400Z,23.00
2023-09-15T05:33:01.612Z,23.00
2023-09-15T05:35:29.920Z,23.00
2023-09-15T05:37:58.095Z,23.00
2023-09-15T05:40:26.123Z,23.10
2023-09-15T05:42:55.660Z,23.10
2023-09-15T05:45:25.304Z,23.10
2023-09-15T05:47:53.393Z,23.10
2023-09-15T05:50:21.267Z,23.10
2023-09-15T05:52:49.179Z,23.10
2023-09-15T05:55:17.420Z,23.10
2023-09-15T05:57:45.448Z,23.10
2023-09-15T06:00:13.979Z,23.10
2023-09-15T06:02:44.309Z,23.20
2023-09-15T06:05:12.413Z,23.20
2023-09-15T06:07:40.518Z,23.20
2023-09-15T06:10:09.450Z,20.00
2023-09-15T06:12:37.410Z,18.10
2023-09-15T06:15:05.867Z,17.10
2023-09-15T06:17:35.109Z,16.80
2023-09-15T06:20:06.134Z,16.20
2023-09-15T06:22:35.441Z,15.70
2023-09-15T06:25:03.841Z,15.40
2023-09-15T06:27:33.851Z,15.30
2023-09-15T06:30:02.139Z,15.10
2023-09-15T06:32:30.110Z,14.90
2023-09-15T06:34:58.406Z,14.90
2023-09-15T06:37:27.746Z,14.90
2023-09-15T06:39:55.694Z,14.60
2023-09-15T06:42:23.643Z,15.00
2023-09-15T06:44:51.606Z,15.00
2023-09-15T06:47:19.526Z,15.00
2023-09-15T06:49:49.858Z,15.20
2023-09-15T06:52:17.945Z,14.80
2023-09-15T06:54:47.323Z,15.10
2023-09-15T06:57:15.219Z,15.20
2023-09-15T06:59:43.164Z,15.20
2023-09-15T07:02:13.022Z,15.60
2023-09-15T07:04:47.779Z,15.60
2023-09-15T07:07:15.903Z,15.60
2023-09-15T07:09:43.809Z,15.60
2023-09-15T07:12:13.071Z,15.70
2023-09-15T07:14:40.984Z,15.70
2023-09-15T07:17:08.951Z,15.80
2023-09-15T07:19:36.932Z,16.10
2023-09-15T07:22:05.324Z,16.10
2023-09-15T07:24:33.232Z,16.10
2023-09-15T07:27:02.225Z,16.30
2023-09-15T07:29:31.697Z,16.40
2023-09-15T07:32:00.899Z,17.90
2023-09-15T07:34:28.917Z,18.70
2023-09-15T07:36:57.037Z,19.40
2023-09-15T07:39:25.063Z,20.30
2023-09-15T07:41:52.962Z,21.00
2023-09-15T07:44:20.837Z,21.60
2023-09-15T07:46:50.154Z,21.90
2023-09-15T07:49:19.510Z,22.30
2023-09-15T07:51:50.022Z,22.30
2023-09-15T07:54:17.958Z,22.40
2023-09-15T07:56:45.894Z,22.20
2023-09-15T07:59:14.971Z,22.40
2023-09-15T08:01:42.932Z,22.40
2023-09-15T08:04:12.283Z,22.30
2023-09-15T08:06:40.280Z,22.50
2023-09-15T08:09:08.173Z,22.80
2023-09-15T08:11:38.655Z,23.20
2023-09-15T08:14:06.884Z,23.10
2023-09-15T08:16:34.949Z,23.50
2023-09-15T08:19:02.988Z,23.50
2023-09-15T08:21:32.407Z,23.50
2023-09-15T08:24:00.304Z,23.70
2023-09-15T08:26:39.032Z,23.70
2023-09-15T08:29:13.507Z,23.50
2023-09-15T08:31:41.807Z,23.30
2023-09-15T08:34:10.005Z,23.50
2023-09-15T08:36:39.336Z,23.70
2023-09-15T08:39:07.300Z,23.90
2023-09-15T08:41:41.645Z,23.80
2023-09-15T08:44:10.849Z,23.90
2023-09-15T08:46:41.700Z,24.10
2023-09-15T08:49:11.558Z,24.20
2023-09-15T08:51:41.173Z,24.20
2023-09-15T08:54:09.671Z,24.20
2023-09-15T08:56:37.767Z,24.40
2023-09-15T08:59:06.833Z,24.50
2023-09-15T09:01:35.782Z,24.50
2023-09-15T09:04:04.301Z,24.40
2023-09-15T09:06:35.673Z,24.40
2023-09-15T09:09:05.623Z,24.20
2023-09-15T09:11:34.163Z,23.90
2023-09-15T09:14:02.162Z,24.30
2023-09-15T09:16:31.405Z,24.10
2023-09-15T09:19:01.685Z,23.90
2023-09-15T09:21:30.924Z,23.80
2023-09-15T09:23:59.906Z,23.60
2023-09-15T09:26:29.462Z,23.70
2023-09-15T09:28:58.655Z,23.80
2023-09-15T09:31:27.499Z,24.20
2023-09-15T09:33:56.280Z,24.10
2023-09-15T09:36:24.325Z,24.20
2023-09-15T09:38:53.778Z,24.40
2023-09-15T09:41:23.927Z,24.50
2023-09-15T09:43:53.460Z,24.40
2023-09-15T09:46:22.815Z,24.30
2023-09-15T09:48:52.572Z,24.20
2023-09-15T09:51:21.896Z,24.20
2023-09-15T09:53:56.315Z,24.20
2023-09-15T09:56:24.537Z,24.30
2023-09-15T09:58:53.898Z,24.40
2023-09-15T10:01:21.892Z,24.50
2023-09-15T10:03:50.816Z,24.60
2023-09-15T10:06:19.579Z,24.30
2023-09-15T10:08:48.900Z,24.10
2023-09-15T10:11:18.062Z,24.10
2023-09-15T10:13:46.991Z,24.00
2023-09-15T10:16:16.827Z,24.20
2023-09-15T10:18:46.276Z,24.10
2023-09-15T10:21:15.823Z,24.20
2023-09-15T10:23:43.832Z,24.20
2023-09-15T10:26:13.341Z,24.30
2023-09-15T10:28:46.829Z,24.30
2023-09-15T10:31:16.139Z,24.30
2023-09-15T10:33:44.451Z,24.50
2023-09-15T10:36:16.168Z,24.30
2023-09-15T10:38:46.744Z,24.50
2023-09-15T10:41:26.972Z,24.30
2023-09-15T10:43:55.054Z,24.20
2023-09-15T10:46:36.571Z,24.40
2023-09-15T10:49:16.036Z,24.40
2023-09-15T10:51:57.292Z,24.50
2023-09-15T10:54:32.204Z,24.30
2023-09-15T10:57:01.715Z,24.20
2023-09-15T10:59:29.840Z,24.40
2023-09-15T11:02:00.218Z,24.60
2023-09-15T11:04:30.881Z,24.70
2023-09-15T11:06:59.666Z,24.80
2023-09-15T11:09:27.617Z,24.60
2023-09-15T11:11:55.580Z,24.60
2023-09-15T11:14:25.035Z,24.80
2023-09-15T11:16:55.176Z,24.80
2023-09-15T11:19:26.941Z,24.80
2023-09-15T11:21:54.833Z,24.70
2023-09-15T11:24:23.858Z,24.80
2023-09-15T11:26:53.343Z,24.80
2023-09-15T11:29:26.583Z,24.60
2023-09-15T11:31:55.760Z,24.90
2023-09-15T11:34:25.403Z,25.10
2023-09-15T11:36:59.249Z,24.90
2023-09-15T11:39:27.489Z,24.80
2023-09-15T11:41:55.488Z,24.60
2023-09-15T11:44:26.202Z,24.40
2023-09-15T11:46:57.033Z,24.30
2023-09-15T11:49:27.760Z,24.30
2023-09-15T11:51:57.246Z,24.30
2023-09-15T11:54:25.331Z,24.30
2023-09-15T11:56:54.059Z,24.30
2023-09-15T11:59:22.603Z,24.30
2023-09-15T12:01:55.842Z,24.20
2023-09-15T12:04:25.097Z,24.20
2023-09-15T12:06:55.636Z,24.10
2023-09-15T12:09:23.900Z,24.30
2023-09-15T12:11:53.344Z,24.10
2023-09-15T12:14:21.478Z,24.20
2023-09-15T12:16:49.603Z,24.10
2023-09-15T12:19:18.126Z,24.10
2023-09-15T12:21:54.640Z,24.20
2023-09-15T12:24:24.981Z,24.40
2023-09-15T12:26:53.506Z,24.30
2023-09-15T12:29:23.666Z,24.40
2023-09-15T12:31:52.724Z,24.70
2023-09-15T12:34:22.098Z,24.80
2023-09-15T12:36:53.528Z,24.60
2023-09-15T12:39:23.126Z,24.70
2023-09-15T12:42:13.514Z,24.80
2023-09-15T12:44:43.434Z,24.50
2023-09-15T12:47:12.040Z,24.00
2023-09-15T12:49:40.368Z,24.00
2023-09-15T12:52:08.612Z,24.00
2023-09-15T12:54:38.038Z,24.00
2023-09-15T12:57:06.449Z,23.80
2023-09-15T12:59:34.406Z,23.80
2023-09-15T13:02:02.612Z,23.70
2023-09-15T13:04:32.056Z,23.70
2023-09-15T13:07:01.274Z,23.50
2023-09-15T13:09:32.003Z,23.60
2023-09-15T13:12:02.139Z,23.70
2023-09-15T13:14:31.202Z,23.40
2023-09-15T13:17:00.119Z,23.40
2023-09-15T13:19:28.209Z,23.60
2023-09-15T13:21:56.143Z,23.40
2023-09-15T13:24:24.122Z,23.40
2023-09-15T13:26:53.284Z,23.50
2023-09-15T13:29:22.579Z,23.60
2023-09-15T13:31:50.677Z,23.80
2023-09-15T13:34:18.703Z,23.90
2023-09-15T13:36:46.653Z,23.70
2023-09-15T13:39:14.602Z,23.70
2023-09-15T13:41:42.584Z,23.60
2023-09-15T13:44:10.887Z,23.30
2023-09-15T13:46:40.588Z,23.30
2023-09-15T13:49:08.614Z,23.50
2023-09-15T13:51:42.563Z,23.40
2023-09-15T13:54:11.620Z,23.60
2023-09-15T13:56:39.796Z,23.70
2023-09-15T13:59:07.746Z,23.50
2023-09-15T14:01:38.218Z,23.30
2023-09-15T14:04:08.609Z,23.30
2023-09-15T14:06:36.636Z,23.40
2023-09-15T14:09:04.961Z,23.60
2023-09-15T14:11:32.847Z,23.40
2023-09-15T14:14:00.799Z,23.30
2023-09-15T14:16:28.789Z,23.20
2023-09-15T14:18:56.713Z,23.40
2023-09-15T14:21:26.097Z,23.40
2023-09-15T14:23:54.015Z,23.40
2023-09-15T14:26:22.257Z,23.60
2023-09-15T14:28:50.544Z,23.60
2023-09-15T14:31:18.712Z,23.70
2023-09-15T14:33:46.732Z,23.70
2023-09-15T14:36:14.680Z,23.70
2023-09-15T14:38:43.940Z,23.60
2023-09-15T14:41:11.873Z,23.60
2023-09-15T14:43:41.620Z,23.70
2023-09-15T14:46:09.712Z,23.80
2023-09-15T14:48:37.792Z,24.00
2023-09-15T14:51:05.782Z,24.00
2023-09-15T14:53:37.774Z,23.80
2023-09-15T14:56:07.005Z,23.80
2023-09-15T14:58:35.688Z,23.80
2023-09-15T15:01:03.614Z,23.70
2023-09-15T15:03:31.653Z,23.60
2023-09-15T15:05:59.701Z,23.60
2023-09-15T15:08:27.596Z,23.70
2023-09-15T15:10:55.620Z,23.70
2023-09-15T15:13:26.147Z,23.70
2023-09-15T15:15:54.222Z,23.80
2023-09-15T15:18:22.340Z,23.80
2023-09-15T15:20:51.893Z,23.80
2023-09-15T15:23:19.761Z,23.80
2023-09-15T15:25:47.888Z,23.80
2023-09-15T15:28:16.963Z,24.00
2023-09-15T15:30:46.557Z,23.80
2023-09-15T15:33:14.464Z,23.90
2023-09-15T15:35:42.357Z,23.90
2023-09-15T15:38:10.235Z,23.90
2023-09-15T15:40:38.167Z,23.60
2023-09-15T15:43:06.163Z,23.60
2023-09-15T15:45:34.135Z,23.60
2023-09-15T15:48:05.259Z,23.60
2023-09-15T15:50:33.325Z,23.60
2023-09-15T15:53:01.207Z,23.60
2023-09-15T15:55:29.525Z,23.40
2023-09-15T15:57:57.440Z,23.20
2023-09-15T16:00:25.471Z,23.20
2023-09-15T16:02:53.395Z,23.30
2023-09-15T16:05:22.644Z,23.30
2023-09-15T16:07:50.521Z,23.20
2023-09-15T16:10:18.604Z,23.20
2023-09-15T16:12:46.576Z,23.30
2023-09-15T16:15:14.577Z,23.30
2023-09-15T16:17:42.645Z,23.40
2023-09-15T16:20:11.273Z,23.40
2023-09-15T16:22:40.548Z,23.40
2023-09-15T16:25:10.381Z,23.40
2023-09-15T16:27:39.024Z,23.30
2023-09-15T16:30:08.499Z,23.20
2023-09-15T16:32:37.306Z,23.30
2023-09-15T16:35:06.040Z,23.30
2023-09-15T16:37:34.988Z,23.30
2023-09-15T16:40:04.369Z,23.20
2023-09-15T16:42:32.325Z,23.20
2023-09-15T16:45:03.448Z,23.20
2023-09-15T16:47:31.384Z,23.20
2023-09-15T16:50:00.523Z,23.20
2023-09-15T16:52:28.455Z,23.20
2023-09-15T16:54:56.407Z,23.20
2023-09-15T16:57:25.802Z,23.20
2023-09-15T16:59:56.347Z,23.20
2023-09-15T17:02:24.254Z,23.10
2023-09-15T17:04:52.766Z,23.10
2023-09-15T17:07:20.664Z,23.00
2023-09-15T17:09:49.156Z,23.10
2023-09-15T17:12:17.283Z,23.00
2023-09-15T17:14:47.928Z,23.20
2023-09-15T17:17:15.967Z,23.20
2023-09-15T17:19:43.973Z,22.80
2023-09-15T17:22:12.704Z,22.70
2023-09-15T17:24:41.812Z,22.60
2023-09-15T17:27:10.041Z,22.70
2023-09-15T17:29:37.969Z,22.80
2023-09-15T17:32:07.853Z,22.70
2023-09-15T17:34:35.791Z,22.70
2023-09-15T17:37:03.986Z,22.70
2023-09-15T17:39:32.104Z,22.70
2023-09-15T17:42:00.059Z,22.70
2023-09-15T17:44:28.113Z,22.80
2023-09-15T17:46:56.059Z,22.70
2023-09-15T17:49:25.315Z,22.60
2023-09-15T17:51:53.247Z,22.60
2023-09-15T17:54:25.526Z,22.60
2023-09-15T17:56:54.158Z,22.50
2023-09-15T17:59:25.029Z,22.50
2023-09-15T18:01:54.252Z,22.10
2023-09-15T18:04:22.173Z,22.10
2023-09-15T18:06:51.524Z,22.10
2023-09-15T18:09:19.887Z,22.10
2023-09-15T18:11:48.038Z,22.10
2023-09-15T18:14:16.365Z,22.00
2023-09-15T18:16:44.266Z,21.90
2023-09-15T18:19:15.187Z,22.10
2023-09-15T18:21:43.100Z,21.90
2023-09-15T18:24:12.657Z,21.90
2023-09-15T18:26:41.195Z,21.70
2023-09-15T18:29:10.221Z,21.60
2023-09-15T18:31:38.079Z,21.50
2023-09-15T18:34:06.058Z,21.40
2023-09-15T18:36:34.028Z,21.30
2023-09-15T18:39:01.933Z,21.20
2023-09-15T18:41:31.365Z,21.20
2023-09-15T18:43:59.394Z,21.20
2023-09-15T18:46:27.904Z,21.10
2023-09-15T18:48:57.545Z,21.30
2023-09-15T18:51:25.707Z,21.40
2023-09-15T18:53:53.684Z,21.40
2023-09-15T18:56:21.598Z,21.50
2023-09-15T18:58:51.022Z,21.30
2023-09-15T19:01:21.455Z,21.10
2023-09-15T19:03:49.500Z,21.10
2023-09-15T19:06:18.064Z,21.00
2023-09-15T19:08:47.260Z,20.90
2023-09-15T19:11:15.573Z,20.80
2023-09-15T19:13:43.654Z,20.90
2023-09-15T19:16:22.813Z,20.70
2023-09-15T19:18:52.716Z,20.60
2023-09-15T19:21:21.716Z,20.60
2023-09-15T19:23:49.873Z,20.50
2023-09-15T19:26:17.788Z,20.50
2023-09-15T19:28:50.696Z,20.50
2023-09-15T19:31:20.988Z,20.40
2023-09-15T19:33:50.190Z,20.40
2023-09-15T19:36:18.278Z,20.40
2023-09-15T19:38:46.437Z,20.40
2023-09-15T19:41:16.295Z,20.60
2023-09-15T19:43:44.181Z,20.90
2023-09-15T19:46:13.746Z,20.70
2023-09-15T19:48:43.177Z,20.60
2023-09-15T19:51:11.096Z,20.40
2023-09-15T19:53:39.003Z,20.30
2023-09-15T19:56:06.942Z,20.30
2023-09-15T19:58:37.901Z,20.20
2023-09-15T20:01:05.996Z,20.20
2023-09-15T20:03:35.172Z,20.20
2023-09-15T20:06:06.017Z,20.20
2023-09-15T20:08:33.941Z,20.10
2023-09-15T20:11:02.071Z,20.10
2023-09-15T20:13:30.023Z,20.10
2023-09-15T20:15:57.936Z,20.10
2023-09-15T20:18:26.022Z,20.00
2023-09-15T20:20:54.743Z,20.00
2023-09-15T20:23:24.072Z,20.00
2023-09-15T20:25:52.057Z,20.00
2023-09-15T20:28:20.808Z,19.90
2023-09-15T20:30:48.789Z,19.90
2023-09-15T20:33:16.720Z,19.90
2023-09-15T20:35:44.976Z,19.80
2023-09-15T20:38:12.928Z,19.80
2023-09-15T20:40:44.365Z,19.80
2023-09-15T20:43:12.692Z,19.70
2023-09-15T20:45:41.510Z,19.70
2023-09-15T20:48:10.216Z,19.70
2023-09-15T20:50:38.165Z,19.80
2023-09-15T20:53:06.216Z,19.50
2023-09-15T20:55:34.491Z,19.60
2023-09-15T20:58:06.591Z,20.40
2023-09-15T21:00:35.103Z,21.40
2023-09-15T21:03:03.826Z,22.00
2023-09-15T21:05:31.788Z,22.40
2023-09-15T21:07:59.698Z,22.70
2023-09-15T21:10:27.565Z,22.90
2023-09-15T21:12:55.518Z,23.00
2023-09-15T21:15:24.820Z,23.10
2023-09-15T21:17:53.542Z,23.20
2023-09-15T21:20:21.651Z,23.10
2023-09-15T21:22:50.922Z,22.90
2023-09-15T21:25:18.824Z,22.70
2023-09-15T21:27:46.753Z,22.50
2023-09-15T21:30:14.706Z,22.50
2023-09-15T21:32:44.122Z,22.50
2023-09-15T21:35:13.286Z,22.40
2023-09-15T21:37:41.170Z,22.50
2023-09-15T21:40:10.336Z,22.50
2023-09-15T21:42:38.359Z,22.40
2023-09-15T21:45:10.094Z,22.40
2023-09-15T21:47:37.984Z,22.50
2023-09-15T21:50:07.956Z,22.50
2023-09-15T21:52:36.268Z,22.50
2023-09-15T21:55:05.023Z,22.50
2023-09-15T21:57:32.949Z,22.50
2023-09-15T22:00:00.875Z,22.50
2023-09-15T22:02:28.819Z,22.40
2023-09-15T22:04:57.404Z,22.00
2023-09-15T22:07:26.741Z,21.70
2023-09-15T22:09:54.792Z,21.50
2023-09-15T22:12:22.763Z,21.50
2023-09-15T22:14:50.674Z,21.40
2023-09-15T22:17:19.185Z,21.40
2023-09-15T22:19:49.118Z,21.40
2023-09-15T22:22:17.582Z,21.50
2023-09-15T22:24:46.888Z,21.50
2023-09-15T22:27:15.043Z,21.50
2023-09-15T22:29:45.301Z,21.50
2023-09-15T22:32:14.142Z,21.50
2023-09-15T22:34:42.159Z,21.60
2023-09-15T22:37:10.864Z,21.40
2023-09-15T22:39:39.086Z,21.40
2023-09-15T22:42:08.789Z,21.20
2023-09-15T22:44:37.544Z,21.20
2023-09-15T22:47:09.424Z,21.20
2023-09-15T22:49:39.847Z,21.30
2023-09-15T22:52:09.147Z,21.40
2023-09-15T22:54:42.690Z,21.50
2023-09-15T22:57:12.099Z,21.50
2023-09-15T22:59:39.984Z,21.40
2023-09-15T23:02:08.943Z,21.40
2023-09-15T23:04:36.842Z,21.40
2023-09-15T23:07:05.129Z,21.50
2023-09-15T23:09:33.055Z,21.10
2023-09-15T23:12:01.844Z,21.30
2023-09-15T23:14:31.108Z,21.40
2023-09-15T23:16:59.747Z,21.30
2023-09-15T23:19:27.891Z,21.20
2023-09-15T23:21:55.795Z,21.20
2023-09-15T23:24:25.400Z,21.30
2023-09-15T23:26:54.901Z,21.30
2023-09-15T23:29:22.831Z,21.30
2023-09-15T23:31:52.820Z,21.20
2023-09-15T23:34:20.936Z,21.10
2023-09-15T23:36:48.886Z,21.10
2023-09-15T23:39:16.801Z,21.10
2023-09-15T23:41:45.257Z,21.10
2023-09-15T23:44:13.404Z,21.00
2023-09-15T23:46:41.332Z,21.10
2023-09-15T23:49:10.666Z,21.20
2023-09-15T23:51:38.599Z,21.20
2023-09-15T23:54:06.766Z,21.10
2023-09-15T23:56:34.650Z,21.20
2023-09-15T23:59:02.529Z,21.20
